Time;durP1;ratioP1;P1;durP2;ratioP2;P2;SDS_P1;SDS_P2;PMS_P1;PMS_P2;Temp;Humidity;BMP_temperature;BMP_pressure;BME280_temperature;BME280_humidity;BME280_pressure;Samples;Min_cycle;Max_cycle;Signal;HPM_P1;HPM_P2
2023/10/07 00:00:47;;;;;;;7.22;2.88;;;11.40;99.90;;;;;;5051823;28;20069;-78
2023/10/07 00:03:17;;;;;;;5.85;2.97;;;11.30;99.90;;;;;;5036845;28;20041;-78
2023/10/07 00:05:46;;;;;;;5.47;2.90;;;11.30;99.90;;;;;;5045765;28;20431;-77
2023/10/07 00:08:19;;;;;;;6.93;3.57;;;11.30;99.90;;;;;;5043474;28;20044;-77
2023/10/07 00:10:48;;;;;;;8.00;3.38;;;11.30;99.90;;;;;;5042568;28;20049;-77
2023/10/07 00:13:20;;;;;;;9.13;3.60;;;11.20;99.90;;;;;;5041641;28;20416;-77
2023/10/07 00:15:51;;;;;;;8.05;3.60;;;11.20;99.90;;;;;;5050513;28;20080;-77
2023/10/07 00:18:19;;;;;;;7.15;3.28;;;11.20;99.90;;;;;;5049210;28;20140;-77
2023/10/07 00:20:49;;;;;;;5.07;3.05;;;11.20;99.90;;;;;;5044439;28;20048;-77
2023/10/07 00:23:20;;;;;;;6.17;2.70;;;11.20;99.90;;;;;;5045935;28;20040;-77
2023/10/07 00:25:52;;;;;;;5.55;2.80;;;11.10;99.90;;;;;;5041621;28;20053;-77
2023/10/07 00:28:35;;;;;;;5.82;2.58;;;11.10;99.90;;;;;;5051511;28;20045;-77
2023/10/07 00:31:06;;;;;;;6.53;2.50;;;11.10;99.90;;;;;;5044178;28;20559;-78
2023/10/07 00:39:06;;;;;;;7.18;2.85;;;11.00;99.90;;;;;;5046290;28;20041;-77
2023/10/07 00:41:45;;;;;;;7.75;2.72;;;11.00;99.90;;;;;;5046191;28;20045;-77
2023/10/07 00:47:12;;;;;;;5.17;2.90;;;10.90;99.90;;;;;;5024655;28;20045;-77
2023/10/07 00:49:54;;;;;;;4.53;2.13;;;10.90;99.90;;;;;;5043467;28;20284;-77
2023/10/07 00:52:32;;;;;;;4.57;2.25;;;10.90;99.90;;;;;;5041873;28;20044;-77
2023/10/07 00:55:09;;;;;;;7.38;2.45;;;10.90;99.90;;;;;;5046180;28;20040;-77
2023/10/07 00:57:37;;;;;;;5.40;2.40;;;10.80;99.90;;;;;;5050493;28;20042;-77
2023/10/07 01:00:50;;;;;;;4.38;1.98;;;10.80;99.90;;;;;;5042280;28;20097;-77
2023/10/07 01:03:13;;;;;;;5.15;2.00;;;10.80;99.90;;;;;;5039501;28;20505;-77
2023/10/07 01:08:30;;;;;;;5.28;2.38;;;10.70;99.90;;;;;;5044219;28;20424;-77
2023/10/07 01:13:48;;;;;;;4.30;2.00;;;10.70;99.90;;;;;;5047468;28;20124;-77
2023/10/07 01:16:20;;;;;;;3.58;2.00;;;10.60;99.90;;;;;;5041804;28;20073;-77
2023/10/07 01:18:47;;;;;;;5.43;2.17;;;10.60;99.90;;;;;;5045191;28;20041;-77
2023/10/07 01:21:33;;;;;;;4.28;2.35;;;10.60;99.90;;;;;;5041650;28;20459;-77
2023/10/07 01:24:05;;;;;;;6.82;2.60;;;10.60;99.90;;;;;;5050089;28;20045;-77
2023/10/07 01:26:39;;;;;;;6.35;2.22;;;10.60;99.90;;;;;;5045911;28;20107;-77
2023/10/07 01:29:13;;;;;;;5.53;2.47;;;10.50;99.90;;;;;;5040864;28;20076;-77
2023/10/07 01:31:55;;;;;;;2.97;1.98;;;10.50;99.90;;;;;;5044363;28;20050;-77
2023/10/07 01:34:24;;;;;;;6.38;2.08;;;10.50;99.90;;;;;;5034956;28;20128;-77
2023/10/07 01:36:52;;;;;;;3.67;2.20;;;10.50;99.90;;;;;;5045210;28;20063;-77
2023/10/07 01:39:18;;;;;;;6.78;2.20;;;10.50;99.90;;;;;;5049087;28;20076;-77
2023/10/07 01:41:45;;;;;;;4.07;2.08;;;10.40;99.90;;;;;;5048591;28;20076;-77
2023/10/07 01:44:15;;;;;;;4.10;2.35;;;10.40;99.90;;;;;;5044376;28;20509;-77
2023/10/07 01:46:44;;;;;;;3.75;2.10;;;10.40;99.90;;;;;;5044240;28;20056;-78
2023/10/07 01:49:17;;;;;;;3.13;1.88;;;10.30;99.90;;;;;;5042713;28;20041;-77
2023/10/07 01:51:44;;;;;;;3.90;2.20;;;10.30;99.90;;;;;;5041091;28;20045;-77
2023/10/07 01:54:12;;;;;;;4.78;2.17;;;10.30;99.90;;;;;;5050346;28;20068;-77
2023/10/07 01:56:39;;;;;;;5.00;1.77;;;10.30;99.90;;;;;;5047000;28;20041;-76
2023/10/07 02:01:42;;;;;;;5.85;2.30;;;10.20;99.90;;;;;;5042998;28;20912;-77
2023/10/07 02:04:24;;;;;;;5.10;2.40;;;10.20;99.90;;;;;;5039865;28;20049;-77
2023/10/07 02:06:51;;;;;;;4.40;2.20;;;10.20;99.90;;;;;;5042772;28;20056;-77
2023/10/07 02:09:26;;;;;;;6.60;2.05;;;10.20;99.90;;;;;;5047167;28;20049;-77
2023/10/07 02:11:53;;;;;;;3.58;1.95;;;10.20;99.90;;;;;;5047786;28;20089;-77
2023/10/07 02:14:27;;;;;;;3.75;1.98;;;10.10;99.90;;;;;;5039651;28;20517;-77
2023/10/07 02:16:59;;;;;;;5.68;2.20;;;10.10;99.90;;;;;;5042769;28;20049;-75
2023/10/07 02:19:31;;;;;;;6.15;2.08;;;10.10;99.90;;;;;;5037284;28;20045;-75
2023/10/07 02:22:03;;;;;;;4.95;2.17;;;10.00;99.90;;;;;;5037494;28;20064;-75
2023/10/07 02:24:32;;;;;;;4.10;1.98;;;10.00;99.90;;;;;;5046024;28;20041;-75
2023/10/07 02:27:08;;;;;;;4.07;1.95;;;10.00;99.90;;;;;;5046775;28;20057;-77
2023/10/07 02:29:35;;;;;;;4.82;2.03;;;9.90;99.90;;;;;;5038138;28;20107;-77
2023/10/07 02:32:17;;;;;;;4.03;1.98;;;9.90;99.90;;;;;;5043616;28;20140;-76
2023/10/07 02:34:51;;;;;;;3.35;1.80;;;9.90;99.90;;;;;;5042411;28;20053;-77
2023/10/07 02:37:25;;;;;;;4.57;1.95;;;9.90;99.90;;;;;;5043966;28;20049;-77
2023/10/07 02:40:35;;;;;;;3.78;2.28;;;9.80;99.90;;;;;;5044766;28;20053;-77
2023/10/07 02:42:46;;;;;;;5.20;2.50;;;9.80;99.90;;;;;;5036716;28;20607;-76
2023/10/07 02:47:40;;;;;;;5.13;1.77;;;9.70;99.90;;;;;;5044161;28;20053;-77
2023/10/07 02:50:08;;;;;;;5.22;2.05;;;9.70;99.90;;;;;;5036911;28;20664;-77
2023/10/07 02:52:36;;;;;;;4.63;2.22;;;9.70;99.90;;;;;;5044749;28;20049;-76
2023/10/07 02:57:47;;;;;;;5.13;2.45;;;9.70;99.90;;;;;;5042252;28;20505;-77
2023/10/07 03:00:35;;;;;;;5.20;1.95;;;9.70;99.90;;;;;;5041962;28;20463;-77
2023/10/07 03:03:32;;;;;;;3.10;1.80;;;9.70;99.90;;;;;;5049152;28;20057;-78
2023/10/07 03:05:59;;;;;;;3.05;1.95;;;9.60;99.90;;;;;;5053039;28;20114;-76
2023/10/07 03:08:50;;;;;;;4.60;2.10;;;9.60;99.90;;;;;;5046530;28;20049;-77
2023/10/07 03:11:23;;;;;;;3.13;1.73;;;9.60;99.90;;;;;;5049486;28;20056;-77
2023/10/07 03:13:56;;;;;;;3.95;2.10;;;9.60;99.90;;;;;;5041105;28;20505;-75
2023/10/07 03:18:56;;;;;;;3.03;1.80;;;9.60;99.90;;;;;;5051666;28;20088;-77
2023/10/07 03:21:54;;;;;;;3.92;2.05;;;9.60;99.90;;;;;;5050029;28;20431;-77
2023/10/07 03:24:11;;;;;;;4.72;2.00;;;9.60;99.90;;;;;;5046539;28;20435;-77
2023/10/07 03:26:41;;;;;;;3.90;2.35;;;9.50;99.90;;;;;;5047557;28;20045;-77
2023/10/07 03:29:08;;;;;;;4.88;2.10;;;9.50;99.90;;;;;;5039964;28;20046;-76
2023/10/07 03:34:12;;;;;;;2.72;1.52;;;9.50;99.90;;;;;;5051308;28;20049;-77
2023/10/07 03:41:47;;;;;;;6.10;1.83;;;9.40;99.90;;;;;;5047485;28;20076;-77
2023/10/07 03:44:18;;;;;;;3.95;1.88;;;9.40;99.90;;;;;;5039418;28;20132;-77
2023/10/07 03:46:48;;;;;;;2.92;1.77;;;9.40;99.90;;;;;;5048219;28;20057;-77
2023/10/07 03:49:16;;;;;;;3.55;2.03;;;9.40;99.90;;;;;;5050056;28;20067;-77
2023/10/07 03:51:48;;;;;;;2.83;1.80;;;9.40;99.90;;;;;;5048231;28;20437;-76
2023/10/07 03:54:29;;;;;;;4.57;1.95;;;9.40;99.90;;;;;;5043371;28;20036;-77
2023/10/07 03:56:57;;;;;;;6.78;1.83;;;9.40;99.90;;;;;;5028872;28;20045;-77
2023/10/07 03:59:24;;;;;;;3.15;1.65;;;9.30;99.90;;;;;;5044889;28;20076;-77
2023/10/07 04:01:53;;;;;;;4.28;1.70;;;9.30;99.90;;;;;;5052071;28;20073;-77
2023/10/07 04:04:24;;;;;;;5.80;1.77;;;9.30;99.90;;;;;;5050969;28;20051;-77
2023/10/07 04:06:51;;;;;;;;;;;9.30;99.90;;;;;;5027075;28;20041;-77
2023/10/07 04:09:19;;;;;;;5.65;2.53;;;9.30;99.90;;;;;;5041063;28;19966;-77
2023/10/07 04:11:48;;;;;;;4.97;1.70;;;9.30;99.90;;;;;;5044036;28;20049;-77
2023/10/07 04:14:19;;;;;;;5.70;2.33;;;9.30;99.90;;;;;;5042630;28;20076;-77
2023/10/07 04:16:50;;;;;;;11.45;3.50;;;9.20;99.90;;;;;;5051266;28;20046;-77
2023/10/07 04:21:45;;;;;;;5.38;3.05;;;9.20;99.90;;;;;;5046199;28;20567;-77
2023/10/07 04:24:12;;;;;;;4.63;2.83;;;9.20;99.90;;;;;;5043232;28;20045;-77
2023/10/07 04:26:42;;;;;;;6.10;3.03;;;9.20;99.90;;;;;;5044456;28;20046;-77
2023/10/07 04:29:16;;;;;;;6.85;2.67;;;9.20;99.90;;;;;;5035690;28;20045;-77
2023/10/07 04:31:53;;;;;;;5.63;2.30;;;9.10;99.90;;;;;;5046994;28;20053;-77
2023/10/07 04:34:24;;;;;;;5.80;2.40;;;9.10;99.90;;;;;;5048434;28;20685;-77
2023/10/07 04:39:51;;;;;;;5.80;2.92;;;9.10;99.90;;;;;;5042579;28;20045;-76
2023/10/07 04:42:21;;;;;;;6.90;2.63;;;9.00;99.90;;;;;;5042483;28;20081;-77
2023/10/07 04:52:32;;;;;;;7.50;2.72;;;9.00;99.90;;;;;;5039234;28;20056;-75
2023/10/07 04:55:00;;;;;;;5.05;2.42;;;9.00;99.90;;;;;;5041598;28;20045;-76
2023/10/07 04:57:44;;;;;;;4.68;2.53;;;9.00;99.90;;;;;;5043769;28;20519;-76
2023/10/07 05:03:14;;;;;;;4.93;2.45;;;8.90;99.90;;;;;;5043288;28;20064;-76
2023/10/07 05:05:45;;;;;;;8.38;2.72;;;8.90;99.90;;;;;;5028073;28;20038;-76
2023/10/07 05:08:17;;;;;;;3.03;2.13;;;8.90;99.90;;;;;;5037561;28;20042;-76
2023/10/07 05:10:52;;;;;;;6.13;2.92;;;8.90;99.90;;;;;;5043361;28;20091;-75
2023/10/07 05:13:20;;;;;;;4.35;2.25;;;8.90;99.90;;;;;;5053061;28;20473;-76
2023/10/07 05:15:46;;;;;;;4.78;2.15;;;8.80;99.90;;;;;;5044377;28;20053;-76
2023/10/07 05:18:16;;;;;;;4.35;2.33;;;8.80;99.90;;;;;;5045416;28;20095;-76
2023/10/07 05:20:46;;;;;;;7.22;2.17;;;8.80;99.90;;;;;;5043582;28;20038;-76
2023/10/07 05:23:14;;;;;;;4.50;2.40;;;8.80;99.90;;;;;;5038422;28;20516;-76
2023/10/07 05:25:50;;;;;;;7.57;2.80;;;8.80;99.90;;;;;;5046966;28;20127;-76
2023/10/07 05:28:21;;;;;;;5.57;2.72;;;8.80;99.90;;;;;;5051593;28;20049;-76
2023/10/07 05:30:52;;;;;;;7.68;2.70;;;8.80;99.90;;;;;;5042638;28;20129;-76
2023/10/07 05:33:25;;;;;;;4.20;2.42;;;8.80;99.90;;;;;;5045240;28;20134;-76
2023/10/07 05:36:11;;;;;;;5.32;2.80;;;8.70;99.90;;;;;;5041853;28;20053;-77
2023/10/07 05:38:42;;;;;;;4.35;2.30;;;8.60;99.90;;;;;;5028545;28;20049;-76
2023/10/07 05:41:12;;;;;;;5.10;2.67;;;8.70;99.90;;;;;;5030044;28;20497;-76
2023/10/07 05:43:43;;;;;;;;;;;8.70;99.90;;;;;;5049133;28;20059;-76
2023/10/07 05:46:11;;;;;;;6.18;2.80;;;8.70;99.90;;;;;;5044079;28;19995;-76
2023/10/07 05:48:42;;;;;;;4.78;2.40;;;8.70;99.90;;;;;;5041559;28;20040;-76
2023/10/07 05:51:09;;;;;;;5.95;2.67;;;8.70;99.90;;;;;;5042627;28;20100;-76
2023/10/07 05:53:41;;;;;;;6.63;3.17;;;8.70;99.90;;;;;;5037195;28;20045;-76
2023/10/07 05:56:09;;;;;;;6.73;3.13;;;8.80;99.90;;;;;;5049471;28;20539;-76
2023/10/07 05:58:37;;;;;;;5.78;2.83;;;8.80;99.90;;;;;;5045952;28;20102;-76
2023/10/07 06:01:05;;;;;;;7.43;3.30;;;8.80;99.90;;;;;;5041789;28;20122;-76
2023/10/07 06:03:32;;;;;;;5.38;3.00;;;8.80;99.90;;;;;;5042118;28;20120;-76
2023/10/07 06:05:59;;;;;;;8.02;3.10;;;8.80;99.90;;;;;;5040801;28;20037;-76
2023/10/07 06:08:27;;;;;;;6.32;2.60;;;8.80;99.90;;;;;;5040118;28;20488;-76
2023/10/07 06:10:59;;;;;;;5.60;2.95;;;8.80;99.90;;;;;;5046494;28;20053;-76
2023/10/07 06:13:27;;;;;;;6.68;2.55;;;8.80;99.90;;;;;;5049461;28;20424;-76
2023/10/07 06:15:59;;;;;;;6.03;2.58;;;8.80;99.90;;;;;;5040033;28;20088;-75
2023/10/07 06:18:26;;;;;;;7.88;3.15;;;8.90;99.90;;;;;;5042243;28;20040;-76
2023/10/07 06:20:53;;;;;;;10.15;3.88;;;8.90;99.90;;;;;;5040169;28;20464;-76
2023/10/07 06:23:24;;;;;;;5.88;2.88;;;8.80;99.90;;;;;;5037611;28;20488;-76
2023/10/07 06:25:52;;;;;;;5.90;3.42;;;8.80;99.90;;;;;;5044056;28;20041;-77
2023/10/07 06:28:29;;;;;;;6.38;2.90;;;8.90;99.90;;;;;;5047076;28;20448;-76
2023/10/07 06:31:10;;;;;;;7.63;3.53;;;8.90;99.90;;;;;;5039313;28;20489;-76
2023/10/07 06:33:59;;;;;;;6.70;3.13;;;8.90;99.90;;;;;;5043918;28;20041;-76
2023/10/07 06:36:27;;;;;;;8.95;3.40;;;9.00;99.90;;;;;;5042127;28;20443;-76
2023/10/07 06:38:58;;;;;;;6.50;3.55;;;8.90;99.90;;;;;;5049035;28;20041;-76
2023/10/07 06:41:29;;;;;;;5.18;2.65;;;8.90;99.90;;;;;;5050621;28;20098;-75
2023/10/07 06:43:59;;;;;;;5.88;2.60;;;9.00;99.90;;;;;;5049451;28;20417;-76
2023/10/07 06:46:40;;;;;;;;;;;9.00;99.90;;;;;;5044020;28;20102;-76
2023/10/07 06:49:17;;;;;;;8.20;3.10;;;9.10;99.90;;;;;;5049911;28;19920;-76
2023/10/07 06:51:45;;;;;;;5.97;3.13;;;9.20;99.90;;;;;;5029808;28;20045;-76
2023/10/07 06:54:14;;;;;;;4.47;2.40;;;9.20;99.90;;;;;;5052562;28;20497;-76
2023/10/07 06:56:40;;;;;;;6.78;2.85;;;9.20;99.90;;;;;;5046985;28;20094;-76
2023/10/07 06:59:10;;;;;;;7.97;3.50;;;9.30;99.90;;;;;;5047858;28;20402;-76
2023/10/07 07:04:14;;;;;;;9.15;5.28;;;9.40;99.90;;;;;;5049218;28;20045;-76
2023/10/07 07:06:58;;;;;;;9.55;5.10;;;9.40;99.90;;;;;;5048907;28;20037;-76
2023/10/07 07:12:16;;;;;;;9.40;4.68;;;9.50;99.90;;;;;;5046515;28;20084;-76
2023/10/07 07:14:50;;;;;;;10.55;3.70;;;9.60;99.90;;;;;;5045628;28;20111;-76
2023/10/07 07:22:42;;;;;;;9.35;4.38;;;9.80;99.90;;;;;;5053966;28;20050;-77
2023/10/07 07:25:17;;;;;;;11.60;4.18;;;9.80;99.90;;;;;;5045761;28;20044;-77
2023/10/07 07:27:48;;;;;;;10.13;4.18;;;9.80;99.90;;;;;;5047834;28;20041;-76
2023/10/07 07:30:31;;;;;;;9.02;3.97;;;9.80;99.90;;;;;;5036745;28;20045;-76
2023/10/07 07:33:06;;;;;;;8.13;4.75;;;9.90;99.90;;;;;;5032636;28;20067;-76
2023/10/07 07:35:41;;;;;;;9.32;3.97;;;10.00;99.90;;;;;;5050236;28;20041;-76
2023/10/07 07:38:26;;;;;;;13.55;4.38;;;10.10;99.90;;;;;;5047476;28;20493;-76
2023/10/07 07:41:09;;;;;;;10.02;4.30;;;10.10;99.90;;;;;;5047961;28;20128;-76
2023/10/07 07:43:37;;;;;;;7.72;4.18;;;10.20;99.90;;;;;;5043062;28;20040;-76
2023/10/07 07:48:45;;;;;;;7.05;3.83;;;10.40;99.90;;;;;;5046443;28;20044;-76
2023/10/07 07:51:16;;;;;;;8.45;4.43;;;10.50;99.90;;;;;;5049812;28;20091;-76
2023/10/07 07:53:44;;;;;;;7.05;3.30;;;10.50;99.90;;;;;;5048196;28;20045;-76
2023/10/07 07:56:12;;;;;;;7.15;3.38;;;10.60;99.90;;;;;;5042220;28;20049;-76
2023/10/07 07:58:41;;;;;;;8.20;3.97;;;10.70;99.90;;;;;;5047437;28;20582;-76
2023/10/07 08:01:15;;;;;;;7.28;3.67;;;10.80;99.90;;;;;;5037738;28;20083;-76
2023/10/07 08:03:42;;;;;;;7.50;3.47;;;10.90;99.90;;;;;;5048456;28;20063;-76
2023/10/07 08:06:19;;;;;;;7.38;4.03;;;10.90;99.90;;;;;;5048028;28;20055;-76
2023/10/07 08:08:49;;;;;;;7.60;3.42;;;11.00;99.90;;;;;;5046751;28;20087;-76
2023/10/07 08:11:17;;;;;;;7.00;4.10;;;11.10;99.90;;;;;;5042528;28;20072;-76
2023/10/07 08:13:46;;;;;;;10.65;3.55;;;11.20;99.90;;;;;;5045639;28;20099;-77
2023/10/07 08:16:19;;;;;;;12.15;5.25;;;11.20;99.90;;;;;;5036273;28;20049;-76
2023/10/07 08:18:53;;;;;;;7.55;3.78;;;11.30;99.90;;;;;;5051109;28;20072;-76
2023/10/07 08:21:28;;;;;;;11.20;3.70;;;11.40;99.90;;;;;;5048923;28;20128;-76
2023/10/07 08:24:01;;;;;;;11.25;4.03;;;11.50;99.90;;;;;;5043701;28;20068;-76
2023/10/07 08:26:28;;;;;;;10.00;3.65;;;11.60;99.90;;;;;;5043451;28;20436;-76
2023/10/07 08:31:29;;;;;;;9.23;4.10;;;11.70;99.90;;;;;;5037795;28;20053;-77
2023/10/07 08:36:36;;;;;;;10.85;5.18;;;11.90;99.90;;;;;;5050289;28;20045;-77
2023/10/07 08:39:10;;;;;;;8.82;3.63;;;12.00;99.90;;;;;;5040838;28;20045;-76
2023/10/07 08:41:40;;;;;;;6.65;3.45;;;12.10;99.90;;;;;;5043198;28;20040;-76
2023/10/07 08:44:14;;;;;;;8.63;3.75;;;12.10;99.90;;;;;;5042248;28;20124;-76
2023/10/07 08:46:54;;;;;;;8.60;3.22;;;12.20;99.90;;;;;;5046704;28;20496;-77
2023/10/07 08:49:26;;;;;;;5.25;2.80;;;12.30;99.90;;;;;;5047818;28;20072;-77
2023/10/07 08:51:54;;;;;;;5.90;3.20;;;12.40;99.90;;;;;;5028626;28;20143;-76
2023/10/07 08:54:37;;;;;;;6.35;3.28;;;12.60;99.90;;;;;;5042313;28;20049;-77
2023/10/07 08:57:15;;;;;;;10.23;3.55;;;12.70;99.90;;;;;;5031780;28;20049;-76
2023/10/07 09:00:11;;;;;;;8.27;3.38;;;13.00;99.90;;;;;;5039302;28;20049;-76
2023/10/07 09:02:37;;;;;;;7.03;3.28;;;13.30;99.90;;;;;;5051890;28;20052;-77
2023/10/07 09:05:09;;;;;;;6.70;3.13;;;13.60;99.90;;;;;;5046668;28;20515;-77
2023/10/07 09:07:36;;;;;;;6.07;3.40;;;14.00;99.90;;;;;;5047363;28;20045;-77
2023/10/07 09:10:14;;;;;;;7.45;3.13;;;14.30;99.90;;;;;;5037507;28;20051;-77
2023/10/07 09:12:46;;;;;;;8.63;3.30;;;14.50;99.90;;;;;;5041821;28;20090;-77
2023/10/07 09:15:28;;;;;;;6.05;3.33;;;14.80;99.90;;;;;;5042416;28;20081;-77
2023/10/07 09:18:05;;;;;;;8.25;3.80;;;15.00;99.90;;;;;;5043501;28;20045;-76
2023/10/07 09:20:36;;;;;;;7.90;3.33;;;15.20;99.90;;;;;;5046406;28;20046;-77
2023/10/07 09:23:15;;;;;;;7.57;3.22;;;15.40;99.90;;;;;;5042705;28;20041;-77
2023/10/07 09:25:55;;;;;;;6.88;3.28;;;15.60;99.90;;;;;;5038514;28;20045;-77
2023/10/07 09:28:29;;;;;;;9.47;3.93;;;15.70;99.90;;;;;;5042960;28;20493;-77
2023/10/07 09:30:59;;;;;;;10.20;3.80;;;15.90;99.90;;;;;;5047387;28;20048;-77
2023/10/07 09:33:35;;;;;;;8.40;3.00;;;15.90;99.90;;;;;;5045699;28;20053;-77
2023/10/07 09:38:48;;;;;;;7.05;2.92;;;16.00;99.90;;;;;;5038829;28;20137;-76
2023/10/07 09:43:56;;;;;;;6.95;3.33;;;16.00;99.90;;;;;;5047265;28;20123;-76
2023/10/07 09:46:24;;;;;;;5.95;3.53;;;16.00;99.90;;;;;;5046713;28;20050;-77
2023/10/07 09:49:05;;;;;;;5.88;3.22;;;15.90;99.90;;;;;;5044841;28;20081;-76
2023/10/07 09:51:44;;;;;;;6.68;3.50;;;15.90;99.90;;;;;;5045553;28;20045;-77
2023/10/07 09:54:49;;;;;;;7.95;3.90;;;15.90;99.90;;;;;;5037436;28;20046;-77
2023/10/07 09:57:37;;;;;;;5.70;2.75;;;15.90;99.90;;;;;;5048447;28;20053;-76
2023/10/07 10:00:37;;;;;;;14.18;4.40;;;15.90;99.90;;;;;;5045782;28;20045;-76
2023/10/07 10:03:28;;;;;;;9.00;3.13;;;15.80;99.90;;;;;;5040264;28;20049;-77
2023/10/07 10:06:16;;;;;;;6.05;3.08;;;15.80;99.90;;;;;;5041293;28;20048;-77
2023/10/07 10:08:55;;;;;;;10.57;3.10;;;15.80;99.90;;;;;;5043283;28;20167;-77
2023/10/07 10:16:45;;;;;;;7.28;3.38;;;16.00;99.90;;;;;;5052542;28;20046;-76
2023/10/07 10:19:23;;;;;;;6.60;3.17;;;16.10;99.90;;;;;;5043296;28;20041;-77
2023/10/07 10:21:51;;;;;;;6.90;3.28;;;16.20;99.90;;;;;;5046539;28;20041;-77
2023/10/07 10:24:30;;;;;;;6.28;2.88;;;16.20;99.90;;;;;;5040011;28;20046;-77
2023/10/07 10:27:04;;;;;;;11.32;3.67;;;16.30;99.90;;;;;;5049279;28;20040;-77
2023/10/07 10:29:36;;;;;;;8.40;2.90;;;16.40;99.90;;;;;;5050119;28;20099;-77
2023/10/07 10:32:16;;;;;;;7.13;2.92;;;16.40;99.90;;;;;;5047069;28;20540;-77
2023/10/07 10:34:45;;;;;;;9.57;3.03;;;16.50;99.90;;;;;;5046530;28;20049;-77
2023/10/07 10:37:12;;;;;;;6.03;2.65;;;16.50;99.90;;;;;;5046333;28;20048;-76
2023/10/07 10:39:39;;;;;;;12.13;2.80;;;16.60;99.90;;;;;;5042108;28;20125;-77
2023/10/07 10:42:13;;;;;;;8.45;3.10;;;16.60;99.90;;;;;;5050258;28;20037;-77
2023/10/07 10:44:46;;;;;;;8.25;3.30;;;16.60;99.90;;;;;;5051916;28;20424;-77
2023/10/07 10:47:21;;;;;;;5.63;3.17;;;16.70;99.90;;;;;;5027092;28;20528;-77
2023/10/07 10:49:54;;;;;;;5.70;3.08;;;16.70;99.90;;;;;;5045239;28;20131;-77
2023/10/07 10:52:22;;;;;;;8.60;3.42;;;16.70;99.90;;;;;;5045284;28;20053;-77
2023/10/07 10:54:48;;;;;;;7.00;3.38;;;16.80;99.90;;;;;;5051429;28;20055;-77
2023/10/07 10:57:19;;;;;;;6.82;2.88;;;16.80;99.90;;;;;;5048039;28;20049;-77
2023/10/07 10:59:50;;;;;;;7.00;2.90;;;16.90;99.90;;;;;;5050874;28;20071;-77
2023/10/07 11:02:20;;;;;;;6.13;2.97;;;16.90;99.90;;;;;;5028639;28;20041;-76
2023/10/07 11:04:54;;;;;;;6.40;3.33;;;17.00;99.90;;;;;;5042385;28;20045;-77
2023/10/07 11:07:25;;;;;;;6.15;3.28;;;17.00;99.90;;;;;;5044347;28;20136;-77
2023/10/07 11:09:52;;;;;;;8.73;3.20;;;17.10;99.90;;;;;;5037214;28;20531;-77
2023/10/07 11:12:22;;;;;;;6.72;2.90;;;17.10;99.90;;;;;;5047056;28;20103;-77
2023/10/07 11:14:49;;;;;;;8.43;3.25;;;17.20;99.90;;;;;;5050335;28;20486;-77
2023/10/07 11:17:16;;;;;;;8.20;3.53;;;17.20;99.90;;;;;;5042652;28;20054;-77
2023/10/07 11:19:44;;;;;;;7.70;3.38;;;17.30;99.90;;;;;;5041603;28;20045;-76
2023/10/07 11:22:13;;;;;;;6.97;3.50;;;17.30;99.90;;;;;;5043955;28;20140;-77
2023/10/07 11:24:40;;;;;;;5.40;2.97;;;17.30;99.90;;;;;;5053798;28;20475;-77
2023/10/07 11:27:08;;;;;;;5.97;3.03;;;17.30;99.90;;;;;;5046956;28;20045;-76
2023/10/07 11:29:36;;;;;;;7.95;3.50;;;17.40;99.90;;;;;;5046896;28;20100;-76
2023/10/07 11:32:06;;;;;;;5.82;3.47;;;17.40;99.90;;;;;;5043933;28;20123;-77
2023/10/07 11:34:38;;;;;;;8.98;2.80;;;17.40;99.90;;;;;;5039800;28;20045;-77
2023/10/07 11:37:13;;;;;;;8.57;2.70;;;17.50;99.90;;;;;;5046916;28;20048;-76
2023/10/07 11:39:47;;;;;;;6.13;3.40;;;17.50;99.90;;;;;;5053308;28;20049;-76
2023/10/07 11:42:19;;;;;;;6.18;3.05;;;17.50;99.90;;;;;;5044861;28;20311;-76
2023/10/07 11:44:52;;;;;;;5.43;2.83;;;17.60;99.90;;;;;;5049488;28;20471;-77
2023/10/07 11:47:23;;;;;;;4.45;2.63;;;17.60;99.90;;;;;;5041378;28;20050;-77
2023/10/07 11:49:50;;;;;;;8.60;3.00;;;17.70;99.90;;;;;;5045175;28;20060;-76
2023/10/07 11:52:20;;;;;;;9.07;3.40;;;17.80;99.90;;;;;;5035385;28;20497;-76
2023/10/07 11:54:47;;;;;;;8.20;2.90;;;17.80;99.90;;;;;;5053466;28;20071;-77
2023/10/07 11:57:17;;;;;;;5.45;2.42;;;17.80;99.90;;;;;;5043621;28;20207;-77
2023/10/07 11:59:45;;;;;;;6.65;2.85;;;17.80;99.90;;;;;;5048132;28;20076;-76
2023/10/07 12:02:12;;;;;;;6.65;2.83;;;17.90;99.90;;;;;;5040605;28;20042;-77
2023/10/07 12:04:41;;;;;;;6.07;2.60;;;17.90;99.90;;;;;;5043022;28;20045;-77
2023/10/07 12:07:08;;;;;;;6.47;2.92;;;17.90;99.90;;;;;;5049801;28;20412;-77
2023/10/07 12:09:37;;;;;;;7.78;2.38;;;17.90;99.90;;;;;;5049671;28;20088;-77
2023/10/07 12:12:06;;;;;;;5.93;3.00;;;17.90;99.90;;;;;;5044312;28;20139;-76
2023/10/07 12:14:33;;;;;;;5.00;2.58;;;18.00;99.90;;;;;;5046682;28;20539;-76
2023/10/07 12:17:01;;;;;;;7.05;2.88;;;18.00;99.90;;;;;;5041904;28;20077;-77
2023/10/07 12:19:30;;;;;;;4.85;2.47;;;18.00;99.90;;;;;;5040739;28;20052;-77
2023/10/07 12:21:59;;;;;;;5.55;2.40;;;18.10;99.90;;;;;;5049654;28;20106;-77
2023/10/07 12:24:26;;;;;;;5.30;2.95;;;18.20;99.90;;;;;;5030694;28;20480;-77
2023/10/07 12:26:55;;;;;;;6.30;2.75;;;18.20;99.90;;;;;;5045089;28;20527;-77
2023/10/07 12:29:23;;;;;;;5.72;2.42;;;18.20;99.90;;;;;;5043692;28;20374;-76
2023/10/07 12:31:51;;;;;;;6.78;2.80;;;18.30;99.90;;;;;;5041070;28;20058;-77
2023/10/07 12:34:18;;;;;;;6.55;2.92;;;18.30;99.90;;;;;;5023426;28;20048;-77
2023/10/07 12:36:47;;;;;;;6.70;2.55;;;18.40;99.90;;;;;;5052257;28;20065;-77
2023/10/07 12:39:14;;;;;;;6.43;3.15;;;18.40;99.90;;;;;;5048459;28;20091;-77
2023/10/07 12:41:42;;;;;;;9.55;3.63;;;18.40;99.90;;;;;;5026157;28;20053;-77
2023/10/07 12:44:09;;;;;;;9.32;3.17;;;18.40;99.90;;;;;;5033861;28;20045;-77
2023/10/07 12:46:41;;;;;;;9.88;3.90;;;18.50;99.90;;;;;;5043502;28;20076;-77
2023/10/07 12:49:10;;;;;;;9.32;3.85;;;18.60;99.90;;;;;;5040967;28;20095;-77
2023/10/07 12:51:45;;;;;;;6.65;2.92;;;18.60;99.90;;;;;;5048467;28;20045;-77
2023/10/07 12:54:12;;;;;;;11.82;4.63;;;18.70;99.90;;;;;;5048354;28;20091;-76
2023/10/07 12:56:43;;;;;;;9.27;4.63;;;18.70;99.90;;;;;;5043294;28;20077;-77
2023/10/07 12:59:21;;;;;;;7.95;3.20;;;18.80;99.90;;;;;;5040044;28;20037;-75
2023/10/07 13:01:56;;;;;;;8.90;4.15;;;18.80;99.90;;;;;;5040349;28;20104;-76
2023/10/07 13:04:33;;;;;;;8.93;3.60;;;18.80;99.90;;;;;;5047390;28;20045;-76
2023/10/07 13:07:04;;;;;;;7.43;3.25;;;18.90;99.90;;;;;;5044778;28;20116;-75
2023/10/07 13:09:31;;;;;;;7.45;2.75;;;19.00;99.90;;;;;;5047845;28;20049;-76
2023/10/07 13:11:59;;;;;;;7.07;3.30;;;19.00;99.90;;;;;;5041902;28;20048;-76
2023/10/07 13:14:26;;;;;;;9.38;3.10;;;19.00;99.90;;;;;;5046105;28;20057;-77
2023/10/07 13:16:56;;;;;;;7.53;3.47;;;19.10;99.90;;;;;;5042259;28;20106;-76
2023/10/07 13:19:27;;;;;;;9.30;4.00;;;19.10;99.90;;;;;;5050823;28;20374;-76
2023/10/07 13:21:55;;;;;;;8.70;3.42;;;19.20;99.90;;;;;;5029326;28;20479;-76
2023/10/07 13:24:22;;;;;;;6.82;3.00;;;19.20;99.90;;;;;;5046009;28;20488;-76
2023/10/07 13:26:49;;;;;;;9.75;3.00;;;19.20;99.90;;;;;;5039508;28;20042;-76
2023/10/07 13:29:16;;;;;;;3.90;2.40;;;19.20;99.90;;;;;;5046562;28;20056;-77
2023/10/07 13:31:43;;;;;;;7.70;2.97;;;19.30;99.90;;;;;;5046289;28;20045;-76
2023/10/07 13:34:10;;;;;;;7.05;2.78;;;19.30;99.90;;;;;;5050318;28;20041;-77
2023/10/07 13:36:38;;;;;;;12.75;3.33;;;19.40;99.90;;;;;;5043478;28;20041;-77
2023/10/07 13:39:15;;;;;;;12.15;5.40;;;19.40;99.90;;;;;;5043977;28;20045;-76
2023/10/07 13:41:46;;;;;;;13.40;8.65;;;19.40;99.90;;;;;;5033366;28;20512;-76
2023/10/07 13:44:16;;;;;;;48.47;36.13;;;19.50;99.90;;;;;;5042368;28;20053;-76
2023/10/07 13:46:44;;;;;;;15.68;10.15;;;19.50;99.90;;;;;;5044219;28;20057;-77
2023/10/07 13:49:13;;;;;;;15.07;8.80;;;19.50;99.90;;;;;;5055683;28;20488;-77
2023/10/07 13:51:44;;;;;;;6.82;4.45;;;19.50;99.90;;;;;;5044542;28;20083;-77
2023/10/07 13:54:22;;;;;;;10.00;5.72;;;19.60;99.90;;;;;;5044533;28;20128;-77
2023/10/07 13:56:54;;;;;;;12.32;6.43;;;19.60;99.90;;;;;;5037303;28;20053;-77
2023/10/07 13:59:24;;;;;;;12.40;8.23;;;19.60;99.90;;;;;;5042545;28;20046;-77
2023/10/07 14:01:52;;;;;;;6.07;3.28;;;19.60;99.90;;;;;;5048371;28;20416;-77
2023/10/07 14:04:19;;;;;;;7.15;3.13;;;19.60;99.90;;;;;;5047336;28;20052;-77
2023/10/07 14:06:47;;;;;;;10.18;3.53;;;19.70;99.90;;;;;;5042112;28;20054;-77
2023/10/07 14:09:24;;;;;;;6.30;2.85;;;19.70;99.90;;;;;;5043514;28;20047;-77
2023/10/07 14:11:52;;;;;;;8.65;2.70;;;19.70;99.90;;;;;;5036452;28;20053;-77
2023/10/07 14:14:19;;;;;;;5.18;2.90;;;19.70;99.90;;;;;;5026704;28;20128;-76
2023/10/07 14:16:46;;;;;;;4.70;2.42;;;19.70;99.90;;;;;;5048247;28;20053;-77
2023/10/07 14:19:16;;;;;;;6.68;2.83;;;19.80;99.90;;;;;;5047329;28;20041;-77
2023/10/07 14:21:45;;;;;;;5.63;3.00;;;19.80;99.90;;;;;;5041092;28;20500;-77
2023/10/07 14:24:14;;;;;;;8.38;3.00;;;19.80;99.90;;;;;;5043691;28;20037;-77
2023/10/07 14:26:43;;;;;;;5.65;2.67;;;19.80;99.90;;;;;;5035781;28;20405;-77
2023/10/07 14:29:11;;;;;;;4.63;2.58;;;19.80;99.90;;;;;;5031514;28;20144;-77
2023/10/07 14:31:42;;;;;;;9.38;3.10;;;19.80;99.90;;;;;;5028740;28;20136;-77